TCGUK LTBU-LTBA
Flight info
| Callsign | TCGUK |
|---|---|
| Flight time | N/A |
| Altitude | 3000 |
| Route | / |
| Aircraft | C152/L-S/C |
Departure
| Time | 2026-04-17 20:40 |
|---|---|
| Airport | Tekirdağ Çorlu Airport (LTBU) |
Arrival
| Time | N/A |
|---|---|
| Airport | İstanbul Atatürk Airport (LTBA) |
| Time | Latitude | Longitude | Altitude | Speed | Heading |
|---|---|---|---|---|---|
| 2026-04-17 20:15 | 41.12730 | 27.90807 | 476 ft | 0 kts | 135° |
| 2026-04-17 20:33 | 41.12729 | 27.90808 | 476 ft | 2 kts | 127° |
| 2026-04-17 20:33 | 41.12745 | 27.90809 | 476 ft | 4 kts | 292° |
| 2026-04-17 20:34 | 41.12758 | 27.90774 | 476 ft | 5 kts | 311° |
| 2026-04-17 20:34 | 41.12783 | 27.90744 | 476 ft | 5 kts | 323° |
| 2026-04-17 20:34 | 41.12815 | 27.90716 | 476 ft | 7 kts | 322° |
| 2026-04-17 20:34 | 41.12846 | 27.90682 | 476 ft | 0 kts | 318° |
| 2026-04-17 20:38 | 41.12850 | 27.90677 | 476 ft | 5 kts | 320° |
| 2026-04-17 20:38 | 41.12906 | 27.90616 | 475 ft | 13 kts | 320° |
| 2026-04-17 20:38 | 41.12959 | 27.90589 | 475 ft | 10 kts | 33° |
| 2026-04-17 20:38 | 41.13125 | 27.90824 | 483 ft | 55 kts | 49° |
| 2026-04-17 20:39 | 41.13412 | 27.91256 | 575 ft | 63 kts | 46° |
| 2026-04-17 20:39 | 41.13697 | 27.91694 | 707 ft | 64 kts | 46° |
| 2026-04-17 20:39 | 41.13997 | 27.92162 | 859 ft | 67 kts | 49° |
| 2026-04-17 20:39 | 41.14271 | 27.92640 | 1057 ft | 64 kts | 49° |
| 2026-04-17 20:40 | 41.14562 | 27.93123 | 1205 ft | 67 kts | 47° |
| 2026-04-17 20:40 | 41.14865 | 27.93582 | 1401 ft | 63 kts | 44° |
| 2026-04-17 20:40 | 41.15070 | 27.94063 | 1622 ft | 66 kts | 90° |
| 2026-04-17 20:40 | 41.14819 | 27.94675 | 1757 ft | 81 kts | 122° |
| 2026-04-17 20:41 | 41.14413 | 27.95251 | 1873 ft | 86 kts | 124° |
| 2026-04-17 20:41 | 41.14003 | 27.95823 | 2028 ft | 85 kts | 126° |
| 2026-04-17 20:41 | 41.13574 | 27.96374 | 2160 ft | 85 kts | 126° |
| 2026-04-17 20:41 | 41.13135 | 27.96919 | 2267 ft | 89 kts | 129° |
| 2026-04-17 20:42 | 41.12660 | 27.97461 | 2351 ft | 93 kts | 130° |
| 2026-04-17 20:42 | 41.12160 | 27.98004 | 2466 ft | 91 kts | 135° |
| 2026-04-17 20:42 | 41.11669 | 27.98499 | 2623 ft | 87 kts | 134° |
| 2026-04-17 20:42 | 41.11190 | 27.99004 | 2737 ft | 88 kts | 131° |
| 2026-04-17 20:43 | 41.10733 | 27.99560 | 2811 ft | 92 kts | 128° |
| 2026-04-17 20:43 | 41.10271 | 28.00139 | 2913 ft | 91 kts | 128° |
| 2026-04-17 20:43 | 41.09812 | 28.00701 | 3043 ft | 88 kts | 128° |
| 2026-04-17 20:43 | 41.09382 | 28.01252 | 3181 ft | 86 kts | 128° |
| 2026-04-17 20:44 | 41.08947 | 28.01785 | 3295 ft | 87 kts | 127° |
| 2026-04-17 20:44 | 41.08480 | 28.02382 | 3287 ft | 98 kts | 126° |
| 2026-04-17 20:44 | 41.08008 | 28.03012 | 3355 ft | 97 kts | 127° |
| 2026-04-17 20:44 | 41.07520 | 28.03659 | 3316 ft | 102 kts | 126° |
| 2026-04-17 20:45 | 41.07011 | 28.04345 | 3216 ft | 107 kts | 128° |
| 2026-04-17 20:45 | 41.06470 | 28.05042 | 3101 ft | 108 kts | 129° |
| 2026-04-17 20:45 | 41.05936 | 28.05727 | 3041 ft | 106 kts | 128° |
| 2026-04-17 20:45 | 41.05411 | 28.06393 | 3006 ft | 105 kts | 130° |
| 2026-04-17 20:46 | 41.04840 | 28.07022 | 2909 ft | 108 kts | 136° |
| 2026-04-17 20:46 | 41.04253 | 28.07657 | 2811 ft | 107 kts | 130° |
| 2026-04-17 20:46 | 41.03752 | 28.08305 | 2847 ft | 99 kts | 128° |
| 2026-04-17 20:46 | 41.03259 | 28.08919 | 2850 ft | 99 kts | 128° |
| 2026-04-17 20:47 | 41.02796 | 28.09565 | 2970 ft | 92 kts | 120° |
| 2026-04-17 20:47 | 41.02324 | 28.10075 | 3056 ft | 86 kts | 125° |
| 2026-04-17 20:47 | 41.01809 | 28.10451 | 3127 ft | 82 kts | 126° |
| 2026-04-17 20:47 | 41.01328 | 28.10826 | 3175 ft | 80 kts | 122° |
| 2026-04-17 20:48 | 41.00856 | 28.11260 | 3124 ft | 87 kts | 121° |
| 2026-04-17 20:48 | 41.00320 | 28.11711 | 3070 ft | 94 kts | 128° |
| 2026-04-17 20:48 | 40.99742 | 28.12114 | 3047 ft | 96 kts | 134° |
| 2026-04-17 20:48 | 40.99123 | 28.12461 | 3040 ft | 95 kts | 134° |
| 2026-04-17 20:49 | 40.98513 | 28.12806 | 3023 ft | 95 kts | 135° |
| 2026-04-17 20:49 | 40.97911 | 28.13153 | 3015 ft | 93 kts | 132° |
| 2026-04-17 20:49 | 40.97326 | 28.13514 | 3018 ft | 93 kts | 132° |
| 2026-04-17 20:49 | 40.96725 | 28.13879 | 2974 ft | 97 kts | 134° |
| 2026-04-17 20:50 | 40.96111 | 28.14244 | 2960 ft | 96 kts | 134° |
| 2026-04-17 20:50 | 40.95527 | 28.14604 | 2988 ft | 90 kts | 129° |
| 2026-04-17 20:50 | 40.94971 | 28.14998 | 2969 ft | 91 kts | 128° |
| 2026-04-17 20:50 | 40.94421 | 28.15397 | 2990 ft | 89 kts | 128° |
| 2026-04-17 20:51 | 40.93874 | 28.15779 | 3018 ft | 88 kts | 129° |
| 2026-04-17 20:51 | 40.93328 | 28.16161 | 3018 ft | 90 kts | 129° |
| 2026-04-17 20:51 | 40.92787 | 28.16542 | 3040 ft | 89 kts | 129° |
| 2026-04-17 20:51 | 40.92245 | 28.16922 | 3054 ft | 88 kts | 127° |
| 2026-04-17 20:52 | 40.91708 | 28.17316 | 3070 ft | 88 kts | 127° |